Time;durP1;ratioP1;P1;durP2;ratioP2;P2;SDS_P1;SDS_P2;PMS_P1;PMS_P2;Temp;Humidity;BMP_temperature;BMP_pressure;BME280_temperature;BME280_humidity;BME280_pressure;Samples;Min_cycle;Max_cycle;Signal;HPM_P1;HPM_P2
2023/03/14 00:01:31;;;;;;;0.53;0.53;;;11.10;99.90;11.00;98391.00;;;;4970100;28;108730;-67
2023/03/14 00:03:57;;;;;;;0.40;0.23;;;11.00;99.90;11.00;98398.00;;;;4967165;28;117889;-67
2023/03/14 00:06:23;;;;;;;0.40;0.17;;;11.10;99.90;11.00;98396.00;;;;4964411;28;119704;-67
2023/03/14 00:08:49;;;;;;;0.47;0.40;;;11.10;99.90;11.00;98404.00;;;;4968500;28;109975;-66
2023/03/14 00:11:18;;;;;;;0.57;0.27;;;11.00;99.90;11.00;98427.00;;;;4970830;28;87850;-67
2023/03/14 00:13:50;;;;;;;0.40;0.40;;;11.10;99.90;11.00;98408.00;;;;4967342;28;104245;-68
2023/03/14 00:16:16;;;;;;;0.30;0.30;;;11.00;99.90;11.00;98410.00;;;;4982578;27;87783;-67
2023/03/14 00:18:42;;;;;;;0.10;0.10;;;11.10;99.90;11.00;98406.00;;;;4970475;28;87629;-67
2023/03/14 00:21:10;;;;;;;0.63;0.47;;;11.00;99.90;11.00;98392.00;;;;4967644;28;87038;-67
2023/03/14 00:23:38;;;;;;;0.93;0.47;;;11.00;99.90;11.00;98389.00;;;;4967876;28;87856;-66
2023/03/14 00:26:12;;;;;;;0.27;0.27;;;11.50;99.90;11.00;98375.00;;;;4969707;28;88739;-66
2023/03/14 00:28:39;;;;;;;0.43;0.40;;;11.00;99.90;11.00;98374.00;;;;4970552;28;88948;-66
2023/03/14 00:31:07;;;;;;;0.67;0.40;;;11.00;99.90;11.00;98353.00;;;;4969908;28;99201;-66
2023/03/14 00:33:33;;;;;;;0.40;0.33;;;11.10;99.90;11.10;98350.00;;;;4966618;28;89130;-67
2023/03/14 00:36:10;;;;;;;0.57;0.57;;;11.10;99.90;11.10;98357.00;;;;4968137;28;87746;-66
2023/03/14 00:38:37;;;;;;;0.90;0.33;;;11.10;99.90;11.10;98354.00;;;;4970735;28;87906;-67
2023/03/14 00:41:06;;;;;;;0.40;0.40;;;11.10;99.90;11.10;98340.00;;;;4974006;28;87922;-66
2023/03/14 00:43:31;;;;;;;0.77;0.50;;;11.10;99.90;11.10;98348.00;;;;4975881;28;104909;-67
2023/03/14 00:45:57;;;;;;;0.73;0.37;;;11.10;99.90;11.10;98355.00;;;;4973050;28;118628;-67
2023/03/14 00:48:23;;;;;;;0.20;0.20;;;11.10;99.90;11.10;98343.00;;;;4972427;28;110529;-66
2023/03/14 00:50:49;;;;;;;0.60;0.40;;;11.20;99.90;11.10;98347.00;;;;4973082;28;107063;-66
2023/03/14 00:53:15;;;;;;;0.50;0.50;;;11.20;99.90;11.10;98341.00;;;;4971941;28;119517;-67
2023/03/14 00:55:42;;;;;;;0.83;0.40;;;11.10;99.90;11.20;98347.00;;;;4972224;28;96231;-67
2023/03/14 00:58:09;;;;;;;0.40;0.40;;;11.20;99.90;11.20;98349.00;;;;4974046;28;88064;-67
2023/03/14 01:00:36;;;;;;;0.20;0.10;;;11.20;99.90;11.20;98357.00;;;;4975613;28;87846;-68
2023/03/14 01:03:02;;;;;;;0.53;0.53;;;11.20;99.90;11.20;98353.00;;;;4972720;28;111054;-68
2023/03/14 01:05:29;;;;;;;0.77;0.30;;;11.20;99.90;11.20;98361.00;;;;4975042;28;108582;-68
2023/03/14 01:07:55;;;;;;;0.40;0.40;;;11.30;99.90;11.20;98350.00;;;;4975627;28;87967;-68
2023/03/14 01:10:20;;;;;;;0.20;0.20;;;11.20;99.90;11.20;98361.00;;;;4974592;28;102196;-68
2023/03/14 01:12:46;;;;;;;0.90;0.23;;;11.30;99.90;11.20;98365.00;;;;4972178;28;108014;-69
2023/03/14 01:15:12;;;;;;;0.83;0.63;;;11.30;99.90;11.10;98376.00;;;;4972320;28;118699;-70
2023/03/14 01:17:39;;;;;;;1.27;0.53;;;11.20;99.90;11.10;98364.00;;;;4969441;28;110307;-69
2023/03/14 01:20:10;;;;;;;0.20;0.20;;;11.20;99.90;11.10;98369.00;;;;4973140;28;88126;-68
2023/03/14 01:22:39;;;;;;;4.80;0.83;;;11.20;99.90;11.10;98369.00;;;;4972826;28;88015;-69
2023/03/14 01:25:16;;;;;;;0.70;0.70;;;11.10;99.90;11.00;98376.00;;;;4969442;28;87836;-70
2023/03/14 01:27:42;;;;;;;0.57;0.40;;;11.10;99.90;11.00;98361.00;;;;4973428;28;87825;-69
2023/03/14 01:30:09;;;;;;;0.40;0.40;;;11.10;99.90;11.00;98352.00;;;;4974476;28;87865;-71
2023/03/14 01:32:35;;;;;;;0.43;0.40;;;11.10;99.90;11.00;98378.00;;;;4968968;28;88651;-68
2023/03/14 01:35:01;;;;;;;0.53;0.47;;;11.10;99.90;11.00;98367.00;;;;4971029;28;101159;-68
2023/03/14 01:37:27;;;;;;;0.50;0.50;;;11.10;99.90;11.00;98365.00;;;;4970009;28;111436;-67
2023/03/14 01:39:52;;;;;;;1.13;0.60;;;11.00;99.90;11.00;98372.00;;;;4975778;28;87889;-68
2023/03/14 01:42:18;;;;;;;0.73;0.60;;;11.00;99.90;11.00;98374.00;;;;4971516;28;117205;-68
2023/03/14 01:44:57;;;;;;;0.67;0.60;;;11.00;99.90;11.00;98382.00;;;;4967494;28;117745;-66
2023/03/14 01:47:23;;;;;;;0.50;0.50;;;11.00;99.90;10.90;98378.00;;;;4984388;27;87591;-68
2023/03/14 01:50:06;;;;;;;1.07;0.77;;;11.00;99.90;10.90;98384.00;;;;4970315;28;87608;-67
2023/03/14 01:52:41;;;;;;;1.10;0.70;;;11.00;99.90;10.90;98387.00;;;;4969021;28;95097;-68
2023/03/14 01:55:13;;;;;;;0.63;0.60;;;10.90;99.90;10.90;98375.00;;;;4968703;28;89415;-67
2023/03/14 01:57:45;;;;;;;0.50;0.50;;;10.90;99.90;10.90;98390.00;;;;4969558;28;88057;-66
2023/03/14 02:00:21;;;;;;;0.73;0.70;;;10.90;99.90;10.80;98385.00;;;;4985835;27;87207;-67
2023/03/14 02:02:51;;;;;;;0.57;0.43;;;10.90;99.90;10.90;98401.00;;;;4987512;27;90219;-67
2023/03/14 02:05:21;;;;;;;1.13;0.60;;;10.90;99.90;10.90;98380.00;;;;4967432;28;88076;-66
2023/03/14 02:07:51;;;;;;;0.70;0.50;;;10.90;99.90;10.90;98384.00;;;;4987252;27;96340;-66
2023/03/14 02:10:21;;;;;;;1.33;0.90;;;10.90;99.90;10.80;98374.00;;;;4971224;28;89608;-65
2023/03/14 02:12:52;;;;;;;0.80;0.40;;;10.90;99.90;10.80;98382.00;;;;4966318;28;110416;-66
2023/03/14 02:15:24;;;;;;;1.07;0.70;;;10.80;99.90;10.80;98384.00;;;;4973282;28;106868;-66
2023/03/14 02:18:01;;;;;;;1.43;0.63;;;10.90;99.90;10.80;98380.00;;;;4972277;28;110264;-66
2023/03/14 02:21:05;;;;;;;0.43;0.43;;;10.90;99.90;10.80;98382.00;;;;4972585;28;87956;-66
2023/03/14 02:23:49;;;;;;;0.70;0.70;;;10.90;99.90;10.80;98365.00;;;;4982834;27;107020;-66
2023/03/14 02:26:46;;;;;;;0.53;0.53;;;10.90;99.90;10.80;98359.00;;;;4971249;28;87223;-65
2023/03/14 02:29:15;;;;;;;0.90;0.63;;;10.90;99.90;10.90;98360.00;;;;4956437;28;88184;-66
2023/03/14 02:31:41;;;;;;;1.27;0.73;;;10.90;99.90;10.90;98352.00;;;;4968523;28;106446;-65
2023/03/14 02:34:07;;;;;;;0.73;0.63;;;10.90;99.90;10.90;98338.00;;;;4969739;28;118802;-65
2023/03/14 02:36:33;;;;;;;0.80;0.80;;;10.90;99.90;10.90;98339.00;;;;4971015;28;89517;-66
2023/03/14 02:39:13;;;;;;;0.80;0.70;;;10.90;99.90;10.90;98332.00;;;;4970528;28;110608;-66
2023/03/14 02:41:39;;;;;;;0.93;0.60;;;10.90;99.90;10.90;98331.00;;;;4986213;27;90570;-65
2023/03/14 02:44:05;;;;;;;0.97;0.70;;;10.90;99.90;10.90;98340.00;;;;4973039;28;88055;-66
2023/03/14 02:46:31;;;;;;;0.73;0.60;;;10.90;99.90;10.90;98329.00;;;;4972684;28;116309;-66
2023/03/14 02:49:10;;;;;;;0.30;0.30;;;10.90;99.90;10.90;98335.00;;;;4967706;28;88000;-65
2023/03/14 02:51:36;;;;;;;0.40;0.40;;;10.90;99.90;10.90;98332.00;;;;4972919;28;87198;-65
2023/03/14 02:54:03;;;;;;;0.50;0.50;;;10.60;99.90;10.90;98325.00;;;;4969561;28;103900;-66
2023/03/14 02:56:29;;;;;;;0.43;0.43;;;11.00;99.90;10.90;98329.00;;;;4972219;28;88946;-66
2023/03/14 02:58:57;;;;;;;0.50;0.43;;;10.90;99.90;10.90;98331.00;;;;4969560;28;90215;-65
2023/03/14 03:01:23;;;;;;;0.50;0.30;;;11.00;99.90;10.90;98325.00;;;;4969934;28;87745;-66
2023/03/14 03:03:49;;;;;;;0.20;0.20;;;11.00;99.90;11.00;98323.00;;;;4972054;28;88774;-65
2023/03/14 03:06:15;;;;;;;0.60;0.57;;;11.00;99.90;10.90;98323.00;;;;4965487;28;114100;-67
2023/03/14 03:08:47;;;;;;;0.43;0.43;;;11.00;99.90;10.90;98328.00;;;;4972407;28;99562;-66
2023/03/14 03:11:12;;;;;;;0.97;0.73;;;11.00;99.90;11.00;98321.00;;;;4969712;28;87600;-66
2023/03/14 03:13:38;;;;;;;0.57;0.40;;;11.00;99.90;11.00;98313.00;;;;4967660;28;117677;-65
2023/03/14 03:16:04;;;;;;;0.30;0.23;;;11.00;99.90;11.10;98300.00;;;;4969740;28;118088;-65
2023/03/14 03:18:33;;;;;;;0.27;0.27;;;11.10;99.90;11.10;98310.00;;;;4971825;28;100251;-66
2023/03/14 03:21:04;;;;;;;0.73;0.20;;;11.10;99.90;11.10;98311.00;;;;4969138;28;108223;-65
2023/03/14 03:23:30;;;;;;;0.20;0.20;;;11.20;99.90;11.20;98308.00;;;;4968153;28;89642;-65
2023/03/14 03:25:55;;;;;;;0.20;0.20;;;11.30;99.90;11.30;98301.00;;;;4967139;28;119433;-66
2023/03/14 03:28:21;;;;;;;0.13;0.13;;;11.80;99.90;11.30;98295.00;;;;4968136;28;109470;-67
2023/03/14 03:30:47;;;;;;;0.13;0.13;;;11.30;99.90;11.40;98289.00;;;;4967940;28;108556;-66
2023/03/14 03:33:13;;;;;;;0.10;0.10;;;11.40;99.90;11.40;98313.00;;;;4964169;28;118619;-66
2023/03/14 03:35:48;;;;;;;0.30;0.30;;;11.40;99.90;11.50;98294.00;;;;4966384;28;109235;-65
2023/03/14 03:38:14;;;;;;;0.20;0.20;;;11.70;99.90;11.50;98295.00;;;;4968880;28;87892;-66
2023/03/14 03:40:40;;;;;;;0.10;0.10;;;11.50;99.90;11.50;98290.00;;;;4967981;28;86962;-68
2023/03/14 03:43:06;;;;;;;0.20;0.20;;;11.50;99.90;11.60;98284.00;;;;4970559;28;88527;-68
2023/03/14 03:45:31;;;;;;;0.10;0.10;;;11.60;99.90;11.60;98269.00;;;;4967499;28;87858;-67
2023/03/14 03:47:57;;;;;;;0.10;0.10;;;11.60;99.90;11.60;98284.00;;;;4963681;28;110499;-67
2023/03/14 03:50:23;;;;;;;0.30;0.10;;;11.60;99.90;11.60;98303.00;;;;4968456;28;88019;-66
2023/03/14 03:52:48;;;;;;;0.60;0.20;;;11.60;99.90;11.60;98298.00;;;;4967198;28;116998;-67
2023/03/14 03:55:14;;;;;;;0.20;0.10;;;11.60;99.90;11.70;98293.00;;;;4965154;28;107696;-69
2023/03/14 03:57:40;;;;;;;0.20;0.20;;;11.70;99.90;11.60;98308.00;;;;4970117;28;109511;-67
2023/03/14 04:00:08;;;;;;;0.20;0.10;;;11.70;99.90;11.60;98302.00;;;;4967346;28;108988;-67
2023/03/14 04:02:34;;;;;;;0.20;0.20;;;11.70;99.90;11.60;98300.00;;;;4964940;28;88437;-67
2023/03/14 04:05:00;;;;;;;0.33;0.33;;;11.70;99.90;11.60;98300.00;;;;4969308;28;117292;-68
2023/03/14 04:07:25;;;;;;;0.10;0.10;;;11.70;99.90;11.60;98292.00;;;;4965247;28;110545;-67
2023/03/14 04:09:51;;;;;;;0.40;0.37;;;11.70;99.90;11.60;98285.00;;;;4967824;28;108834;-69
2023/03/14 04:12:17;;;;;;;0.10;0.10;;;11.70;99.90;11.60;98288.00;;;;4962827;28;118181;-68
2023/03/14 04:14:42;;;;;;;0.20;0.10;;;11.70;99.90;11.60;98271.00;;;;4974123;28;105576;-67
2023/03/14 04:17:08;;;;;;;0.33;0.20;;;11.60;99.90;11.60;98268.00;;;;4974730;28;87878;-69
2023/03/14 04:19:34;;;;;;;0.20;0.10;;;11.60;99.90;11.60;98271.00;;;;4972572;28;107843;-69
2023/03/14 04:21:59;;;;;;;0.10;0.10;;;11.60;99.90;11.60;98272.00;;;;4970572;28;117107;-68
2023/03/14 04:24:25;;;;;;;0.97;0.20;;;11.70;99.90;11.60;98284.00;;;;4974694;28;116118;-67
2023/03/14 04:26:51;;;;;;;0.10;0.10;;;11.60;99.90;11.60;98270.00;;;;4974446;28;110516;-69
2023/03/14 04:29:17;;;;;;;0.20;0.20;;;11.60;99.90;11.60;98279.00;;;;4973057;28;86972;-67
2023/03/14 04:31:42;;;;;;;1.67;0.20;;;11.60;99.90;11.50;98281.00;;;;4973938;28;88930;-68
2023/03/14 04:34:08;;;;;;;0.20;0.20;;;11.50;99.90;11.50;98272.00;;;;4970437;28;117812;-69
2023/03/14 04:36:33;;;;;;;0.10;0.10;;;11.60;99.90;11.50;98278.00;;;;4974043;28;111969;-68
2023/03/14 04:38:59;;;;;;;1.23;0.10;;;11.80;99.90;11.50;98282.00;;;;4975008;28;94443;-68
2023/03/14 04:41:25;;;;;;;0.30;0.20;;;11.50;99.90;11.40;98275.00;;;;4972485;28;118530;-67
2023/03/14 04:43:50;;;;;;;0.10;0.10;;;11.50;99.90;11.50;98283.00;;;;4973555;28;88616;-65
2023/03/14 04:46:16;;;;;;;0.10;0.10;;;11.50;99.90;11.40;98266.00;;;;4970680;28;110581;-67
2023/03/14 04:48:42;;;;;;;0.13;0.10;;;11.50;99.90;11.40;98270.00;;;;4976079;28;87849;-66
2023/03/14 04:51:08;;;;;;;0.10;0.10;;;11.40;99.90;11.40;98293.00;;;;4974419;28;116309;-68
2023/03/14 04:53:34;;;;;;;3.70;0.30;;;11.40;99.90;11.40;98273.00;;;;4975348;28;116387;-67
2023/03/14 04:56:00;;;;;;;0.20;0.17;;;11.40;99.90;11.40;98270.00;;;;4971237;28;87878;-68
2023/03/14 04:58:25;;;;;;;0.10;0.10;;;11.40;99.90;11.40;98268.00;;;;4970309;28;108263;-67
2023/03/14 05:00:51;;;;;;;0.10;0.10;;;11.40;99.90;11.40;98259.00;;;;4972281;28;112091;-69
2023/03/14 05:03:18;;;;;;;0.40;0.10;;;11.40;99.90;11.40;98253.00;;;;4970931;28;119427;-68
2023/03/14 05:05:44;;;;;;;0.23;0.23;;;11.40;99.90;11.40;98254.00;;;;4966511;27;87800;-67
2023/03/14 05:08:11;;;;;;;0.30;0.23;;;11.50;99.90;11.50;98247.00;;;;4975217;28;96383;-66
2023/03/14 05:10:37;;;;;;;2.23;0.30;;;11.50;99.90;11.40;98248.00;;;;4977245;28;117361;-66
2023/03/14 05:13:03;;;;;;;0.17;0.10;;;11.50;99.90;11.40;98241.00;;;;4975862;28;111856;-67
2023/03/14 05:15:29;;;;;;;0.60;0.33;;;11.40;99.90;11.40;98224.00;;;;4972158;28;111585;-66
2023/03/14 05:17:55;;;;;;;0.60;0.20;;;11.10;99.90;11.30;98227.00;;;;4974836;28;108855;-66
2023/03/14 05:20:21;;;;;;;0.87;0.40;;;11.40;99.90;11.30;98236.00;;;;4974045;28;117815;-66
2023/03/14 05:22:47;;;;;;;0.20;0.20;;;11.30;99.90;11.30;98238.00;;;;4974787;28;115822;-69
2023/03/14 05:25:13;;;;;;;0.57;0.20;;;11.30;99.90;11.30;98248.00;;;;4971314;28;89011;-68
2023/03/14 05:27:38;;;;;;;0.43;0.30;;;11.30;99.90;11.30;98245.00;;;;4988418;27;108587;-67
2023/03/14 05:30:06;;;;;;;0.30;0.30;;;11.30;99.90;11.20;98260.00;;;;4974826;28;118867;-68
2023/03/14 05:32:32;;;;;;;0.10;0.10;;;11.30;99.90;11.20;98258.00;;;;4976351;28;88476;-68
2023/03/14 05:34:59;;;;;;;0.10;0.10;;;11.20;99.90;11.30;98259.00;;;;4973543;28;109520;-66
2023/03/14 05:37:28;;;;;;;0.40;0.30;;;11.30;99.90;11.30;98245.00;;;;4975625;28;87737;-65
2023/03/14 05:39:53;;;;;;;0.10;0.10;;;11.30;99.90;11.30;98253.00;;;;4972211;28;87879;-67
2023/03/14 05:42:20;;;;;;;0.53;0.47;;;11.30;99.90;11.30;98235.00;;;;4968949;28;117315;-67
2023/03/14 05:44:45;;;;;;;0.50;0.27;;;11.30;99.90;11.30;98217.00;;;;4975551;28;87980;-65
2023/03/14 05:47:11;;;;;;;2.43;0.57;;;11.30;99.90;11.40;98230.00;;;;4967112;28;107399;-66
2023/03/14 05:49:37;;;;;;;0.30;0.30;;;11.40;99.90;11.30;98225.00;;;;4969521;28;118610;-66
2023/03/14 05:52:02;;;;;;;3.03;0.23;;;11.40;99.90;11.40;98224.00;;;;4966931;28;117830;-66
2023/03/14 05:54:28;;;;;;;0.00;0.00;;;11.40;99.90;11.40;98225.00;;;;4970117;28;87983;-68
2023/03/14 05:56:54;;;;;;;1.43;0.60;;;11.40;99.90;11.40;98224.00;;;;4965387;28;108013;-68
2023/03/14 05:59:19;;;;;;;0.10;0.10;;;11.40;99.90;11.50;98220.00;;;;4965788;28;106217;-68
2023/03/14 06:01:45;;;;;;;0.10;0.10;;;11.40;99.90;11.50;98222.00;;;;4966435;28;117480;-66
2023/03/14 06:04:11;;;;;;;0.20;0.20;;;11.50;99.90;11.50;98222.00;;;;4965885;28;110431;-67
2023/03/14 06:06:36;;;;;;;0.33;0.33;;;11.50;99.90;11.50;98230.00;;;;4968590;28;108968;-68
2023/03/14 06:09:02;;;;;;;0.87;0.30;;;11.60;99.90;11.50;98253.00;;;;4967284;28;117967;-69
2023/03/14 06:11:28;;;;;;;0.20;0.20;;;11.50;99.90;11.40;98251.00;;;;4972797;28;87998;-67
2023/03/14 06:13:54;;;;;;;1.37;0.43;;;11.50;99.90;11.40;98260.00;;;;4971720;28;110017;-69
2023/03/14 06:16:19;;;;;;;0.10;0.10;;;11.50;99.90;11.40;98258.00;;;;4971564;28;108555;-67
2023/03/14 06:18:46;;;;;;;0.20;0.20;;;11.50;99.90;11.40;98256.00;;;;4972633;28;118330;-67
2023/03/14 06:21:12;;;;;;;0.70;0.30;;;11.40;99.90;11.40;98266.00;;;;4971727;28;88043;-67
2023/03/14 06:23:38;;;;;;;0.20;0.20;;;11.40;99.90;11.40;98265.00;;;;4972819;28;88031;-67
2023/03/14 06:26:05;;;;;;;1.13;0.30;;;11.40;99.90;11.40;98261.00;;;;4977654;28;87987;-68
2023/03/14 06:28:31;;;;;;;0.57;0.40;;;11.40;99.90;11.40;98264.00;;;;4985216;28;88085;-67
2023/03/14 06:30:56;;;;;;;0.20;0.20;;;11.50;99.90;11.40;98261.00;;;;4975015;28;87199;-68
2023/03/14 06:33:22;;;;;;;0.23;0.23;;;11.40;99.90;11.40;98249.00;;;;4974328;28;110236;-68
2023/03/14 06:35:47;;;;;;;1.43;0.40;;;11.40;99.90;11.40;98250.00;;;;4970539;28;92731;-67
2023/03/14 06:38:13;;;;;;;1.60;0.40;;;11.50;99.90;11.50;98255.00;;;;4973992;28;117385;-67
2023/03/14 06:40:39;;;;;;;0.97;0.60;;;11.50;99.90;11.50;98255.00;;;;4976653;28;89159;-67
2023/03/14 06:43:04;;;;;;;0.23;0.23;;;11.50;99.90;11.50;98259.00;;;;4973980;28;111207;-68
2023/03/14 06:45:30;;;;;;;0.90;0.63;;;11.50;99.90;11.50;98258.00;;;;4972764;28;87946;-68
2023/03/14 06:47:56;;;;;;;0.53;0.40;;;11.50;99.90;11.50;98274.00;;;;4985597;27;117009;-67
2023/03/14 06:50:22;;;;;;;0.53;0.20;;;11.50;99.90;11.50;98265.00;;;;4970658;28;116276;-67
2023/03/14 06:52:48;;;;;;;0.50;0.30;;;11.50;99.90;11.50;98271.00;;;;4976426;28;87742;-65
2023/03/14 06:55:17;;;;;;;1.03;0.30;;;11.60;99.90;11.60;98266.00;;;;4970844;28;108523;-69
2023/03/14 06:57:43;;;;;;;0.67;0.40;;;11.60;99.90;11.60;98266.00;;;;4968695;28;88839;-68
2023/03/14 07:00:11;;;;;;;0.73;0.30;;;11.60;99.90;11.60;98284.00;;;;4972737;28;88696;-67
2023/03/14 07:02:37;;;;;;;0.40;0.40;;;11.60;99.90;11.70;98282.00;;;;4973755;28;88827;-69
2023/03/14 07:05:04;;;;;;;2.10;0.27;;;11.70;99.90;11.70;98287.00;;;;4973572;28;108954;-66
2023/03/14 07:07:30;;;;;;;0.60;0.30;;;11.70;99.90;11.70;98284.00;;;;4971399;28;107519;-69
2023/03/14 07:09:55;;;;;;;0.57;0.43;;;11.70;99.90;11.80;98282.00;;;;4972746;28;107710;-68
2023/03/14 07:12:21;;;;;;;3.40;0.60;;;11.80;99.90;11.80;98279.00;;;;4972847;28;112262;-66
2023/03/14 07:14:46;;;;;;;0.50;0.30;;;11.80;99.90;11.80;98268.00;;;;4975211;28;87825;-67
2023/03/14 07:17:12;;;;;;;0.77;0.50;;;11.80;99.90;11.80;98292.00;;;;4967628;28;116999;-67
2023/03/14 07:19:39;;;;;;;0.50;0.30;;;11.80;99.90;11.90;98287.00;;;;4972908;28;88553;-66
2023/03/14 07:22:05;;;;;;;0.87;0.20;;;11.80;99.90;11.90;98278.00;;;;4973777;28;87405;-67
2023/03/14 07:24:31;;;;;;;0.30;0.20;;;11.80;99.90;11.90;98283.00;;;;4970670;28;107512;-66
2023/03/14 07:26:57;;;;;;;0.67;0.53;;;11.90;99.90;12.00;98278.00;;;;4972134;28;117853;-68
2023/03/14 07:29:22;;;;;;;0.80;0.40;;;11.90;99.90;12.00;98280.00;;;;4969988;28;107040;-67
2023/03/14 07:31:48;;;;;;;0.30;0.30;;;12.00;99.90;12.00;98278.00;;;;4971973;28;87947;-66
2023/03/14 07:34:14;;;;;;;0.20;0.20;;;12.00;99.90;12.00;98284.00;;;;4973177;28;108244;-66
2023/03/14 07:36:40;;;;;;;0.53;0.40;;;12.00;99.90;12.00;98287.00;;;;4970733;28;118994;-67
2023/03/14 07:39:05;;;;;;;3.67;0.53;;;12.00;99.90;12.00;98304.00;;;;4972101;28;116282;-68
2023/03/14 07:41:32;;;;;;;3.13;0.40;;;12.00;99.90;12.00;98288.00;;;;4970739;28;87645;-67
2023/03/14 07:43:58;;;;;;;0.40;0.33;;;12.00;99.90;12.00;98301.00;;;;4970290;28;86955;-68
2023/03/14 07:46:23;;;;;;;0.80;0.50;;;12.00;99.90;12.10;98293.00;;;;4969813;28;88305;-67
2023/03/14 07:48:49;;;;;;;5.10;0.77;;;12.00;99.90;12.10;98289.00;;;;4968231;28;118094;-66
2023/03/14 07:51:15;;;;;;;1.57;0.53;;;12.10;99.90;12.10;98282.00;;;;4967692;28;99911;-65
2023/03/14 07:53:42;;;;;;;2.53;0.77;;;12.10;99.90;12.10;98283.00;;;;4972125;28;108173;-66
2023/03/14 07:56:08;;;;;;;0.50;0.40;;;12.10;99.90;12.10;98270.00;;;;4970355;28;88852;-68
2023/03/14 07:58:34;;;;;;;0.63;0.27;;;12.10;99.90;12.20;98270.00;;;;4969196;28;111398;-65
2023/03/14 08:01:00;;;;;;;0.57;0.20;;;12.20;99.90;12.20;98279.00;;;;4972677;28;103169;-67
2023/03/14 08:03:25;;;;;;;0.20;0.20;;;12.20;99.90;12.20;98273.00;;;;4971355;28;107825;-66
2023/03/14 08:05:51;;;;;;;0.40;0.33;;;12.20;99.90;12.30;98268.00;;;;4972062;28;118673;-66
2023/03/14 08:08:18;;;;;;;0.43;0.40;;;12.20;99.90;12.30;98274.00;;;;4972640;28;87313;-68
2023/03/14 08:10:44;;;;;;;0.30;0.20;;;12.20;99.90;12.40;98272.00;;;;4971588;28;87892;-66
2023/03/14 08:13:10;;;;;;;0.40;0.30;;;12.30;99.90;12.40;98282.00;;;;4968977;28;108453;-69
2023/03/14 08:15:36;;;;;;;0.60;0.60;;;12.40;99.90;12.50;98282.00;;;;4971545;28;88939;-67
2023/03/14 08:18:03;;;;;;;0.70;0.60;;;12.40;99.90;12.50;98275.00;;;;4969218;28;88806;-66
2023/03/14 08:20:30;;;;;;;0.97;0.30;;;12.50;99.90;12.60;98287.00;;;;4972227;28;88774;-66
2023/03/14 08:23:21;;;;;;;0.73;0.20;;;12.00;99.90;12.60;98294.00;;;;4971991;28;108756;-66
2023/03/14 08:25:51;;;;;;;0.73;0.50;;;12.60;99.90;12.70;98289.00;;;;4963526;28;87904;-66
2023/03/14 08:28:18;;;;;;;0.40;0.20;;;12.60;99.90;12.80;98282.00;;;;4969376;28;113532;-66
2023/03/14 08:30:44;;;;;;;0.50;0.30;;;12.70;99.90;12.80;98275.00;;;;4972857;28;99900;-66
2023/03/14 08:33:09;;;;;;;0.10;0.10;;;12.70;99.90;12.90;98279.00;;;;4974231;27;98416;-68
2023/03/14 08:35:37;;;;;;;0.33;0.20;;;12.80;99.90;13.00;98274.00;;;;4970737;28;119776;-69
2023/03/14 08:38:03;;;;;;;2.93;0.40;;;12.90;99.90;13.00;98273.00;;;;4972817;28;87873;-66
2023/03/14 08:40:29;;;;;;;0.40;0.40;;;12.90;99.90;13.10;98282.00;;;;4971616;28;108349;-68
2023/03/14 08:42:54;;;;;;;0.40;0.27;;;13.00;99.90;13.20;98268.00;;;;4974327;28;104561;-68
2023/03/14 08:45:20;;;;;;;1.27;0.30;;;13.10;99.90;13.20;98266.00;;;;4968105;28;117798;-66
2023/03/14 08:47:46;;;;;;;2.60;0.70;;;13.20;99.90;13.30;98269.00;;;;4972800;28;87947;-67
2023/03/14 08:50:12;;;;;;;1.40;0.40;;;13.20;99.90;13.30;98269.00;;;;4971256;28;87921;-66
2023/03/14 08:52:40;;;;;;;1.70;0.30;;;13.30;99.90;13.30;98279.00;;;;4972183;28;108137;-66
2023/03/14 08:55:08;;;;;;;0.70;0.43;;;13.30;99.90;13.30;98271.00;;;;4970922;28;88291;-67
2023/03/14 08:57:34;;;;;;;0.90;0.25;;;13.30;99.90;13.30;98272.00;;;;4973581;28;89087;-66
2023/03/14 09:00:00;;;;;;;0.57;0.20;;;13.30;99.90;13.30;98273.00;;;;4973292;28;87858;-66
2023/03/14 09:02:26;;;;;;;0.40;0.30;;;13.30;99.90;13.40;98281.00;;;;4972240;28;105758;-67
2023/03/14 09:04:54;;;;;;;1.37;0.30;;;13.40;99.90;13.60;98287.00;;;;4972075;28;117669;-66
2023/03/14 09:07:20;;;;;;;0.30;0.30;;;13.50;99.90;13.70;98282.00;;;;4972223;28;88496;-67
2023/03/14 09:09:46;;;;;;;0.30;0.20;;;13.60;99.90;13.70;98281.00;;;;4970640;28;108959;-67
2023/03/14 09:12:12;;;;;;;0.20;0.20;;;13.70;99.90;13.80;98303.00;;;;4971364;28;88000;-65
2023/03/14 09:14:38;;;;;;;0.30;0.30;;;13.70;99.90;13.90;98283.00;;;;4971260;28;109626;-66
2023/03/14 09:17:04;;;;;;;0.20;0.20;;;13.80;99.90;14.20;98302.00;;;;4973675;28;105403;-67
2023/03/14 09:19:30;;;;;;;0.35;0.35;;;14.10;99.90;14.50;98297.00;;;;4971537;28;87984;-66
2023/03/14 09:21:56;;;;;;;0.40;0.30;;;14.30;99.90;14.70;98304.00;;;;4973525;28;108116;-66
2023/03/14 09:24:21;;;;;;;1.23;0.40;;;14.50;99.90;14.70;98303.00;;;;4969883;28;116982;-68
2023/03/14 09:26:47;;;;;;;0.68;0.30;;;14.50;99.90;14.70;98300.00;;;;4972048;28;117932;-67
2023/03/14 09:29:13;;;;;;;0.88;0.70;;;14.70;99.90;14.70;98288.00;;;;4970332;28;109067;-68
2023/03/14 09:31:38;;;;;;;0.80;0.40;;;14.60;99.90;14.70;98299.00;;;;4970719;28;109690;-67
2023/03/14 09:34:04;;;;;;;0.20;0.20;;;14.60;99.30;14.80;98301.00;;;;4971113;28;118848;-67
2023/03/14 09:36:30;;;;;;;1.10;0.43;;;14.70;99.60;14.90;98299.00;;;;4970911;28;117451;-67
2023/03/14 09:38:56;;;;;;;0.70;0.65;;;14.80;99.90;15.00;98307.00;;;;4974128;28;110499;-68
2023/03/14 09:41:28;;;;;;;1.70;0.38;;;14.90;99.50;15.10;98298.00;;;;4968330;28;108481;-66
2023/03/14 09:44:11;;;;;;;0.90;0.55;;;15.00;99.60;15.10;98302.00;;;;4973479;28;89276;-67
2023/03/14 09:46:38;;;;;;;1.00;0.50;;;15.00;97.50;15.00;98306.00;;;;4975741;28;87085;-67
2023/03/14 09:49:15;;;;;;;1.73;0.65;;;15.00;97.50;15.00;98298.00;;;;4971249;28;87765;-68
2023/03/14 09:51:43;;;;;;;1.67;0.32;;;15.00;97.40;14.90;98297.00;;;;4971660;28;88119;-68
2023/03/14 09:54:24;;;;;;;0.15;0.15;;;14.80;96.30;14.80;98303.00;;;;4972589;28;89940;-68
2023/03/14 09:56:51;;;;;;;0.35;0.35;;;14.80;96.30;14.70;98311.00;;;;4971549;28;88131;-66
2023/03/14 09:59:16;;;;;;;0.88;0.38;;;14.70;96.00;14.60;98319.00;;;;4970412;28;110178;-65
2023/03/14 10:01:42;;;;;;;0.55;0.40;;;14.70;96.40;14.60;98308.00;;;;4964773;28;108436;-67
2023/03/14 10:04:15;;;;;;;1.50;0.43;;;14.60;96.00;14.50;98322.00;;;;4968212;28;118072;-65
2023/03/14 10:06:41;;;;;;;0.28;0.25;;;14.50;95.50;14.40;98311.00;;;;4966679;28;88738;-67
2023/03/14 10:09:17;;;;;;;0.30;0.10;;;14.40;96.10;14.40;98310.00;;;;4968658;28;110399;-68
2023/03/14 10:11:43;;;;;;;0.98;0.52;;;14.40;96.30;14.40;98316.00;;;;4970039;28;87098;-68
2023/03/14 10:14:13;;;;;;;0.65;0.30;;;14.40;97.00;14.30;98318.00;;;;4968747;28;117655;-68
2023/03/14 10:16:45;;;;;;;4.78;0.60;;;14.30;97.00;14.30;98314.00;;;;4975137;28;87941;-67
2023/03/14 10:19:14;;;;;;;0.40;0.30;;;14.30;96.80;14.20;98316.00;;;;4969446;28;89034;-66
2023/03/14 10:21:44;;;;;;;1.15;0.40;;;14.20;96.90;14.20;98317.00;;;;4972322;28;87870;-68
2023/03/14 10:24:27;;;;;;;2.75;0.40;;;14.20;96.80;14.10;98306.00;;;;4970286;28;108040;-68
2023/03/14 10:27:19;;;;;;;0.40;0.20;;;14.20;96.90;14.00;98314.00;;;;4970090;28;91409;-67
2023/03/14 10:30:01;;;;;;;0.90;0.20;;;14.00;97.10;14.00;98323.00;;;;4967819;28;103836;-68
2023/03/14 10:32:45;;;;;;;0.25;0.25;;;14.00;97.50;14.00;98311.00;;;;4972088;28;87594;-67
2023/03/14 10:35:14;;;;;;;0.10;0.10;;;14.00;97.10;14.00;98316.00;;;;4970084;28;110616;-68
2023/03/14 10:38:04;;;;;;;0.45;0.25;;;14.00;96.90;14.00;98323.00;;;;4969081;28;117791;-68
2023/03/14 10:40:48;;;;;;;0.65;0.22;;;14.00;97.20;13.90;98316.00;;;;4965152;28;110940;-67
2023/03/14 10:43:30;;;;;;;1.40;0.22;;;13.90;96.90;13.90;98328.00;;;;4970200;28;88241;-68
2023/03/14 10:46:01;;;;;;;0.90;0.28;;;13.90;96.80;13.90;98319.00;;;;4969406;28;109715;-68
2023/03/14 10:48:40;;;;;;;0.22;0.22;;;13.90;97.20;13.90;98313.00;;;;4969082;28;88457;-66
2023/03/14 10:51:17;;;;;;;0.70;0.43;;;13.90;97.50;13.90;98313.00;;;;4971608;28;87691;-66
2023/03/14 10:54:02;;;;;;;0.45;0.20;;;13.80;97.70;13.80;98309.00;;;;4974471;28;87973;-68